createdAt,value
2019-01-02T00:00:24.453Z,4.50
2019-01-02T00:02:53.033Z,4.57
2019-01-02T00:05:24.308Z,5.07
2019-01-02T00:07:52.809Z,4.47
2019-01-02T00:10:24.538Z,4.70
2019-01-02T00:12:55.958Z,5.10
2019-01-02T00:15:23.640Z,4.90
2019-01-02T00:17:54.748Z,4.77
2019-01-02T00:20:23.195Z,5.00
2019-01-02T00:22:53.873Z,5.23
2019-01-02T00:25:22.237Z,4.60
2019-01-02T00:27:51.602Z,4.43
2019-01-02T00:30:20.147Z,4.73
2019-01-02T00:32:54.511Z,4.77
2019-01-02T00:35:22.906Z,4.60
2019-01-02T00:37:51.767Z,4.50
2019-01-02T00:40:20.420Z,4.70
2019-01-02T00:42:49.277Z,4.50
2019-01-02T00:45:22.338Z,4.37
2019-01-02T00:47:47.800Z,4.20
2019-01-02T00:50:16.181Z,4.40
2019-01-02T00:52:50.366Z,4.80
2019-01-02T00:55:18.760Z,4.60
2019-01-02T00:57:50.243Z,3.93
2019-01-02T01:00:20.562Z,4.43
2019-01-02T01:02:49.550Z,4.73
2019-01-02T01:05:17.952Z,4.37
2019-01-02T01:07:46.979Z,4.40
2019-01-02T01:10:16.274Z,4.23
2019-01-02T01:12:52.941Z,4.57
2019-01-02T01:15:21.223Z,4.40
2019-01-02T01:17:55.665Z,3.90
2019-01-02T01:20:24.132Z,4.33
2019-01-02T01:22:54.220Z,4.23
2019-01-02T01:25:26.989Z,4.17
2019-01-02T01:27:56.842Z,4.17
2019-01-02T01:30:29.149Z,4.30
2019-01-02T01:32:58.942Z,4.50
2019-01-02T01:35:27.614Z,4.90
2019-01-02T01:38:02.727Z,4.27
2019-01-02T01:40:31.534Z,4.27
2019-01-02T01:43:04.782Z,4.10
2019-01-02T01:45:38.997Z,3.90
2019-01-02T01:48:09.067Z,4.10
2019-01-02T01:50:37.685Z,4.10
2019-01-02T01:53:06.343Z,4.03
2019-01-02T01:55:35.547Z,4.17
2019-01-02T01:58:05.264Z,4.43
2019-01-02T02:00:34.193Z,3.83
2019-01-02T02:03:05.112Z,4.37
2019-01-02T02:05:35.112Z,4.10
2019-01-02T02:08:06.457Z,4.40
2019-01-02T02:10:34.911Z,3.90
2019-01-02T02:13:03.955Z,4.17
2019-01-02T02:15:33.940Z,3.90
2019-01-02T02:18:03.089Z,4.20
2019-01-02T02:20:31.461Z,4.73
2019-01-02T02:23:01.028Z,4.17
2019-01-02T02:25:33.351Z,4.43
2019-01-02T02:28:01.859Z,3.90
2019-01-02T02:30:30.313Z,3.70
2019-01-02T02:32:58.704Z,4.03
2019-01-02T02:35:28.508Z,3.90
2019-01-02T02:37:57.229Z,4.07
2019-01-02T02:40:26.584Z,4.00
2019-01-02T02:42:54.962Z,3.83
2019-01-02T02:45:23.738Z,3.60
2019-01-02T02:47:53.664Z,3.63
2019-01-02T02:50:22.403Z,3.70
2019-01-02T02:52:51.098Z,4.10
2019-01-02T02:55:20.806Z,4.17
2019-01-02T02:57:49.387Z,3.70
2019-01-02T03:00:20.353Z,4.00
2019-01-02T03:02:52.510Z,3.50
2019-01-02T03:05:23.080Z,4.00
2019-01-02T03:07:51.538Z,3.73
2019-01-02T03:10:20.622Z,3.77
2019-01-02T03:12:51.683Z,4.03
2019-01-02T03:15:23.521Z,3.87
2019-01-02T03:17:52.214Z,3.87
2019-01-02T03:20:21.193Z,3.83
2019-01-02T03:22:52.103Z,3.37
2019-01-02T03:25:21.066Z,3.83
2019-01-02T03:27:54.857Z,3.83
2019-01-02T03:30:25.288Z,4.00
2019-01-02T03:32:54.798Z,3.60
2019-01-02T03:35:23.802Z,3.77
2019-01-02T03:37:59.688Z,3.40
2019-01-02T03:40:29.734Z,3.57
2019-01-02T03:42:59.353Z,3.80
2019-01-02T03:45:29.504Z,3.20
2019-01-02T03:47:57.856Z,3.70
2019-01-02T03:50:29.329Z,3.67
2019-01-02T03:53:00.050Z,4.27
2019-01-02T03:55:28.546Z,3.90
2019-01-02T03:57:57.063Z,4.00
2019-01-02T04:00:31.891Z,3.70
2019-01-02T04:03:00.416Z,3.53
2019-01-02T04:05:33.272Z,3.77
2019-01-02T04:08:03.729Z,3.60
2019-01-02T04:10:32.233Z,3.47
2019-01-02T04:13:04.022Z,3.50
2019-01-02T04:15:33.014Z,3.87
2019-01-02T04:18:01.326Z,4.00
2019-01-02T04:20:30.074Z,3.80
2019-01-02T04:22:58.665Z,3.60
2019-01-02T04:25:26.950Z,3.50
2019-01-02T04:27:55.306Z,3.30
2019-01-02T04:30:24.070Z,3.60
2019-01-02T04:32:53.244Z,3.80
2019-01-02T04:35:21.558Z,3.13
2019-01-02T04:37:52.918Z,3.80
2019-01-02T04:40:21.308Z,3.50
2019-01-02T04:42:49.716Z,3.30
2019-01-02T04:45:21.703Z,3.47
2019-01-02T04:47:50.036Z,3.53
2019-01-02T04:50:19.455Z,3.70
2019-01-02T04:52:49.043Z,3.93
2019-01-02T04:55:17.375Z,4.13
2019-01-02T04:57:45.788Z,3.40
2019-01-02T05:00:15.276Z,4.00
2019-01-02T05:02:43.631Z,4.13
2019-01-02T05:05:12.148Z,3.43
2019-01-02T05:07:40.634Z,3.40
2019-01-02T05:10:13.456Z,3.47
2019-01-02T05:12:45.451Z,3.80
2019-01-02T05:15:16.735Z,5.40
2019-01-02T05:17:45.302Z,4.93
2019-01-02T05:20:15.518Z,5.10
2019-01-02T05:22:44.469Z,5.07
2019-01-02T05:25:12.859Z,5.50
2019-01-02T05:27:43.447Z,4.97
2019-01-02T05:30:14.650Z,4.90
2019-01-02T05:32:43.047Z,4.30
2019-01-02T05:35:11.412Z,4.20
2019-01-02T05:37:39.822Z,4.70
2019-01-02T05:40:12.520Z,4.47
2019-01-02T05:42:44.228Z,5.13
2019-01-02T05:45:14.926Z,4.57
2019-01-02T05:47:43.276Z,4.70
2019-01-02T05:50:11.699Z,4.77
2019-01-02T05:52:40.597Z,4.80
2019-01-02T05:55:16.375Z,4.87
2019-01-02T05:57:47.730Z,5.00
2019-01-02T06:00:19.240Z,5.50
2019-01-02T06:02:48.130Z,5.13
2019-01-02T06:05:16.633Z,5.13
2019-01-02T06:07:46.166Z,6.00
2019-01-02T06:10:16.896Z,4.93
2019-01-02T06:12:48.315Z,5.63
2019-01-02T06:15:20.783Z,5.53
2019-01-02T06:17:49.617Z,5.83
2019-01-02T06:20:19.125Z,6.33
2019-01-02T06:22:50.001Z,5.70
2019-01-02T06:25:18.445Z,5.20
2019-01-02T06:27:48.051Z,4.90
2019-01-02T06:30:16.465Z,5.40
2019-01-02T06:32:45.358Z,5.30
2019-01-02T06:35:13.713Z,5.60
2019-01-02T06:37:42.113Z,5.10
2019-01-02T06:40:11.608Z,4.93
2019-01-02T06:42:39.959Z,5.40
2019-01-02T06:45:11.068Z,5.00
2019-01-02T06:47:39.876Z,4.83
2019-01-02T06:50:09.618Z,4.77
2019-01-02T06:52:38.528Z,4.67
2019-01-02T06:55:07.238Z,5.10
2019-01-02T06:57:38.016Z,4.77
2019-01-02T07:00:08.416Z,4.63
2019-01-02T07:02:36.764Z,5.20
2019-01-02T07:05:07.005Z,4.47
2019-01-02T07:07:38.711Z,4.67
2019-01-02T07:10:07.581Z,4.77
2019-01-02T07:12:37.964Z,5.03
2019-01-02T07:15:08.416Z,4.77
2019-01-02T07:17:36.737Z,4.27
2019-01-02T07:20:06.829Z,4.80
2019-01-02T07:22:37.858Z,5.07
2019-01-02T07:25:06.598Z,4.63
2019-01-02T07:27:35.189Z,4.83
2019-01-02T07:30:03.663Z,5.10
2019-01-02T07:32:32.021Z,4.80
2019-01-02T07:35:18.176Z,5.00
2019-01-02T07:38:09.505Z,4.70
2019-01-02T07:41:03.010Z,4.87
2019-01-02T07:43:41.553Z,4.67
2019-01-02T07:46:22.654Z,5.00
2019-01-02T07:49:09.161Z,4.50
2019-01-02T07:51:56.636Z,4.50
2019-01-02T07:54:47.129Z,4.83
2019-01-02T07:57:49.679Z,4.83
2019-01-02T08:00:49.145Z,4.37
2019-01-02T08:03:44.223Z,3.93
2019-01-02T08:06:34.759Z,4.47
2019-01-02T08:09:17.027Z,4.07
2019-01-02T08:11:56.535Z,4.20
2019-01-02T08:14:52.985Z,4.20
2019-01-02T08:17:56.032Z,3.90
2019-01-02T08:20:45.763Z,4.17
2019-01-02T08:23:35.728Z,3.97
2019-01-02T08:26:23.209Z,4.13
2019-01-02T08:29:06.346Z,4.13
2019-01-02T08:31:52.802Z,4.37
2019-01-02T08:34:39.214Z,3.93
2019-01-02T08:37:28.061Z,4.20
2019-01-02T08:40:32.019Z,4.20
2019-01-02T08:43:20.883Z,4.50
2019-01-02T08:46:00.786Z,4.50
2019-01-02T08:48:54.780Z,4.57
2019-01-02T08:51:44.384Z,4.10
2019-01-02T08:54:30.572Z,4.20
2019-01-02T08:57:19.158Z,4.50
2019-01-02T09:00:05.427Z,5.07
2019-01-02T09:02:41.779Z,4.40
2019-01-02T09:05:35.365Z,4.57
2019-01-02T09:08:29.762Z,5.13
2019-01-02T09:11:21.362Z,4.70
2019-01-02T09:14:06.096Z,4.63
2019-01-02T09:16:44.794Z,4.80
2019-01-02T09:19:24.472Z,5.07
2019-01-02T09:22:26.962Z,4.50
2019-01-02T09:25:20.342Z,4.33
2019-01-02T09:27:58.478Z,5.00
2019-01-02T09:30:44.795Z,4.47
2019-01-02T09:33:31.183Z,4.27
2019-01-02T09:36:10.591Z,4.10
2019-01-02T09:39:08.267Z,4.13
2019-01-02T09:41:59.082Z,4.10
2019-01-02T09:44:40.640Z,4.27
2019-01-02T09:47:15.197Z,3.90
2019-01-02T09:50:01.760Z,4.10
2019-01-02T09:53:04.554Z,4.30
2019-01-02T09:55:51.886Z,4.07
2019-01-02T09:58:37.926Z,4.07
2019-01-02T10:01:09.648Z,4.20
2019-01-02T10:03:57.496Z,4.07
2019-01-02T10:06:47.085Z,4.23
2019-01-02T10:09:25.194Z,4.23
2019-01-02T10:11:59.366Z,4.37
2019-01-02T10:14:44.866Z,4.30
2019-01-02T10:17:47.430Z,4.20
2019-01-02T10:20:33.729Z,4.40
2019-01-02T10:23:41.324Z,4.47
2019-01-02T10:26:34.019Z,4.40
2019-01-02T10:29:21.423Z,4.33
2019-01-02T10:32:01.671Z,4.30
2019-01-02T10:34:59.349Z,4.40
2019-01-02T10:37:49.630Z,3.80
2019-01-02T10:40:37.010Z,4.00
2019-01-02T10:43:24.487Z,3.60
2019-01-02T10:46:05.326Z,4.00
2019-01-02T10:49:07.687Z,3.73
2019-01-02T10:51:47.334Z,3.93
2019-01-02T10:54:32.160Z,3.80
2019-01-02T10:57:25.493Z,3.60
2019-01-02T11:00:11.384Z,3.47
2019-01-02T11:02:55.331Z,4.00
2019-01-02T11:05:52.633Z,3.60
2019-01-02T11:08:44.670Z,3.80
2019-01-02T11:11:44.469Z,4.20
2019-01-02T11:14:35.014Z,4.00
2019-01-02T11:17:25.457Z,3.93
2019-01-02T11:20:16.006Z,3.57
2019-01-02T11:23:02.087Z,3.90
2019-01-02T11:26:03.689Z,3.53
2019-01-02T11:28:37.861Z,4.00
2019-01-02T11:31:26.386Z,3.80
2019-01-02T11:34:05.891Z,3.80
2019-01-02T11:36:52.585Z,3.70
2019-01-02T11:39:39.945Z,4.17
2019-01-02T11:42:32.489Z,3.50
2019-01-02T11:45:08.137Z,3.37
2019-01-02T11:47:36.461Z,3.67
2019-01-02T11:50:05.601Z,3.83
2019-01-02T11:52:34.119Z,3.70
2019-01-02T11:55:02.502Z,3.77
2019-01-02T11:57:30.937Z,3.77
2019-01-02T12:00:00.231Z,3.37
2019-01-02T12:02:34.068Z,3.60
2019-01-02T12:04:58.991Z,3.47
2019-01-02T12:07:27.331Z,3.30
2019-01-02T12:09:55.756Z,3.80
2019-01-02T12:12:24.116Z,3.10
2019-01-02T12:14:53.181Z,3.63
2019-01-02T12:17:22.531Z,3.30
2019-01-02T12:19:50.958Z,3.40
2019-01-02T12:22:19.477Z,3.60
2019-01-02T12:24:47.949Z,3.23
2019-01-02T12:27:16.213Z,3.30
2019-01-02T12:29:44.553Z,3.40
2019-01-02T12:32:14.650Z,3.17
2019-01-02T12:34:42.951Z,3.60
2019-01-02T12:37:15.972Z,3.13
2019-01-02T12:39:44.363Z,3.30
2019-01-02T12:42:12.709Z,3.20
2019-01-02T12:44:41.088Z,3.30
2019-01-02T12:47:09.542Z,3.17
2019-01-02T12:49:38.040Z,3.50
2019-01-02T12:52:06.676Z,2.90
2019-01-02T12:54:35.094Z,3.27
2019-01-02T12:57:03.404Z,3.27
2019-01-02T12:59:33.814Z,3.20
2019-01-02T13:02:22.678Z,3.10
2019-01-02T13:05:11.301Z,3.40
2019-01-02T13:08:04.841Z,3.43
2019-01-02T13:10:40.710Z,3.00
2019-01-02T13:13:34.320Z,3.23
2019-01-02T13:16:09.478Z,3.07
2019-01-02T13:18:56.957Z,2.83
2019-01-02T13:21:44.518Z,3.00
2019-01-02T13:24:30.394Z,2.90
2019-01-02T13:27:11.786Z,2.83
2019-01-02T13:29:58.988Z,3.20
2019-01-02T13:33:06.123Z,3.13
2019-01-02T13:35:54.068Z,2.87
2019-01-02T13:38:32.116Z,3.30
2019-01-02T13:41:16.098Z,2.80
2019-01-02T13:44:02.351Z,3.40
2019-01-02T13:46:55.939Z,2.90
2019-01-02T13:49:43.867Z,3.23
2019-01-02T13:52:12.469Z,3.00
2019-01-02T13:54:41.876Z,2.73
2019-01-02T13:57:11.054Z,2.90
2019-01-02T13:59:39.534Z,2.60
2019-01-02T14:02:10.034Z,3.10
2019-01-02T14:04:40.644Z,2.80
2019-01-02T14:07:10.373Z,2.97
2019-01-02T14:09:38.802Z,3.00
2019-01-02T14:12:10.246Z,3.07
2019-01-02T14:14:39.455Z,3.00
2019-01-02T14:17:07.866Z,3.00
2019-01-02T14:19:38.887Z,3.10
2019-01-02T14:22:09.292Z,2.80
2019-01-02T14:24:37.623Z,2.70
2019-01-02T14:27:09.356Z,3.00
2019-01-02T14:29:37.738Z,2.83
2019-01-02T14:32:06.602Z,2.90
2019-01-02T14:34:35.116Z,2.80
2019-01-02T14:37:04.085Z,2.70
2019-01-02T14:39:36.928Z,2.97
2019-01-02T14:42:06.672Z,2.80
2019-01-02T14:44:35.150Z,2.77
2019-01-02T14:47:04.598Z,2.90
2019-01-02T14:49:33.425Z,2.90
2019-01-02T14:52:07.577Z,2.93
2019-01-02T14:54:35.974Z,2.57
2019-01-02T14:57:04.650Z,2.40
2019-01-02T14:59:34.681Z,2.93
2019-01-02T15:02:03.615Z,2.80
2019-01-02T15:04:33.766Z,2.80
2019-01-02T15:07:04.733Z,2.90
2019-01-02T15:09:34.284Z,2.60
2019-01-02T15:12:05.152Z,2.40
2019-01-02T15:14:33.985Z,3.03
2019-01-02T15:17:02.683Z,2.97
2019-01-02T15:19:32.345Z,2.80
2019-01-02T15:22:04.984Z,2.80
2019-01-02T15:24:35.654Z,2.70
2019-01-02T15:27:06.639Z,2.97
2019-01-02T15:29:35.091Z,2.70
2019-01-02T15:32:05.002Z,2.80
2019-01-02T15:34:33.850Z,3.10
2019-01-02T15:37:03.703Z,3.00
2019-01-02T15:39:38.232Z,3.10
2019-01-02T15:42:08.235Z,2.90
2019-01-02T15:44:39.056Z,2.83
2019-01-02T15:47:12.830Z,3.10
2019-01-02T15:49:44.108Z,3.27
2019-01-02T15:52:23.784Z,3.30
2019-01-02T15:54:52.580Z,3.23
2019-01-02T15:57:21.011Z,3.40
2019-01-02T15:59:50.087Z,3.07
2019-01-02T16:02:18.514Z,2.93
2019-01-02T16:04:51.045Z,3.23
2019-01-02T16:07:22.371Z,3.57
2019-01-02T16:09:53.301Z,3.03
2019-01-02T16:12:22.975Z,2.70
2019-01-02T16:14:54.505Z,2.90
2019-01-02T16:17:23.891Z,2.93
2019-01-02T16:19:54.235Z,3.23
2019-01-02T16:22:24.402Z,3.23
2019-01-02T16:24:54.011Z,3.00
2019-01-02T16:27:26.874Z,3.30
2019-01-02T16:29:57.173Z,2.90
2019-01-02T16:32:25.887Z,3.10
2019-01-02T16:34:55.401Z,3.17
2019-01-02T16:37:25.111Z,3.90
2019-01-02T16:39:53.660Z,3.73
2019-01-02T16:42:32.767Z,4.17
2019-01-02T16:45:12.178Z,4.57
2019-01-02T16:51:18.698Z,4.50
2019-01-02T16:54:08.091Z,4.17
2019-01-02T16:56:46.517Z,4.07
2019-01-02T16:59:22.744Z,3.73
2019-01-02T17:05:29.235Z,3.90
2019-01-02T17:08:17.255Z,3.80
2019-01-02T17:11:03.537Z,4.10
2019-01-02T17:13:38.148Z,3.43
2019-01-02T17:16:09.693Z,3.43
2019-01-02T17:18:40.929Z,3.60
2019-01-02T17:21:37.285Z,3.80
2019-01-02T17:33:43.249Z,4.90
2019-01-02T17:36:32.019Z,4.67
2019-01-02T17:39:13.581Z,4.37
2019-01-02T17:42:18.121Z,4.97
2019-01-02T17:45:40.633Z,4.40
2019-01-02T17:48:14.187Z,4.13
2019-01-02T17:51:09.138Z,4.70
2019-01-02T17:53:45.296Z,4.80
2019-01-02T17:56:49.410Z,4.53
2019-01-02T18:00:06.974Z,4.40
2019-01-02T18:02:31.989Z,4.10
2019-01-02T18:05:17.583Z,4.00
2019-01-02T18:08:16.664Z,4.03
2019-01-02T18:14:23.156Z,4.00
2019-01-02T18:29:24.860Z,4.20
2019-01-02T18:32:46.241Z,4.90
2019-01-02T18:35:22.357Z,4.70
2019-01-02T18:38:14.955Z,4.57
2019-01-02T18:44:20.392Z,4.80
2019-01-02T18:47:13.785Z,4.93
2019-01-02T18:56:32.139Z,4.43
2019-01-02T18:59:14.704Z,4.60
2019-01-02T19:01:52.701Z,4.53
2019-01-02T19:04:24.010Z,4.47
2019-01-02T19:07:40.062Z,4.40
2019-01-02T19:13:42.875Z,4.20
2019-01-02T19:20:29.241Z,4.47
2019-01-02T19:33:47.964Z,5.93
2019-01-02T19:36:25.634Z,9.30
2019-01-02T19:39:20.200Z,7.13
2019-01-02T19:41:54.432Z,8.87
2019-01-02T19:44:26.679Z,9.00
2019-01-02T19:47:19.435Z,8.03
2019-01-02T19:50:11.194Z,7.00
2019-01-02T19:53:00.458Z,6.43
2019-01-02T19:55:33.829Z,7.10
2019-01-02T19:58:07.159Z,31.57
2019-01-02T20:00:35.702Z,22.63
2019-01-02T20:03:13.352Z,17.60
2019-01-02T20:05:43.418Z,49.07
2019-01-02T20:08:34.894Z,48.77
2019-01-02T20:11:15.681Z,40.07
2019-01-02T20:13:44.080Z,48.13
2019-01-02T20:16:12.960Z,41.20
2019-01-02T20:25:22.823Z,31.13
2019-01-02T20:27:30.188Z,44.60
2019-01-02T20:29:58.542Z,57.97
2019-01-02T20:32:26.931Z,85.70
2019-01-02T20:34:55.806Z,76.90
2019-01-02T20:37:27.861Z,70.63
2019-01-02T20:40:04.734Z,121.07
2019-01-02T20:42:36.384Z,94.97
2019-01-02T20:45:12.249Z,128.97
2019-01-02T20:47:47.926Z,94.53
2019-01-02T20:50:36.279Z,102.33
2019-01-02T20:53:11.504Z,73.57
2019-01-02T20:55:49.128Z,80.83
2019-01-02T20:58:54.198Z,87.00
2019-01-02T21:01:20.155Z,106.70
2019-01-02T21:03:54.639Z,107.50
2019-01-02T21:06:37.875Z,119.27
2019-01-02T21:09:15.878Z,140.03
2019-01-02T21:15:26.139Z,85.93
2019-01-02T21:17:58.293Z,87.57
2019-01-02T21:23:37.857Z,74.27
2019-01-02T21:26:06.392Z,75.77
2019-01-02T21:28:36.330Z,73.23
2019-01-02T21:31:12.106Z,68.27
2019-01-02T21:33:43.699Z,65.40
2019-01-02T21:36:11.849Z,62.67
2019-01-02T21:38:40.135Z,62.07
2019-01-02T21:41:08.324Z,59.87
2019-01-02T21:43:36.457Z,58.70
2019-01-02T21:46:04.569Z,74.53
2019-01-02T21:48:32.653Z,70.03
2019-01-02T21:51:00.819Z,60.00
2019-01-02T21:53:28.935Z,56.20
2019-01-02T21:55:57.085Z,55.33
2019-01-02T21:58:26.287Z,52.10
2019-01-02T22:00:54.456Z,51.17
2019-01-02T22:03:22.566Z,50.77
2019-01-02T22:05:50.710Z,51.27
2019-01-02T22:08:18.790Z,48.63
2019-01-02T22:10:47.200Z,48.00
2019-01-02T22:13:15.399Z,48.03
2019-01-02T22:15:43.519Z,47.80
2019-01-02T22:18:11.740Z,47.90
2019-01-02T22:20:39.869Z,46.73
2019-01-02T22:23:07.972Z,46.73
2019-01-02T22:25:36.040Z,46.40
2019-01-02T22:28:04.161Z,44.57
2019-01-02T22:30:32.330Z,43.93
2019-01-02T22:33:00.440Z,43.37
2019-01-02T22:35:28.522Z,42.00
2019-01-02T22:37:56.673Z,41.50
2019-01-02T22:40:24.770Z,41.37
2019-01-02T22:42:52.932Z,38.80
2019-01-02T22:45:21.012Z,38.63
2019-01-02T22:47:49.105Z,39.57
2019-01-02T22:50:17.216Z,37.23
2019-01-02T22:52:45.557Z,36.33
2019-01-02T22:55:13.650Z,35.00
2019-01-02T22:57:41.757Z,35.53
2019-01-02T23:00:21.628Z,34.87
2019-01-02T23:03:00.734Z,34.60
2019-01-02T23:05:50.644Z,34.10
2019-01-02T23:08:43.776Z,34.57
2019-01-02T23:11:30.816Z,34.83
2019-01-02T23:14:33.036Z,33.90
2019-01-02T23:17:14.107Z,33.80
2019-01-02T23:19:59.785Z,34.00
2019-01-02T23:22:49.912Z,32.87
2019-01-02T23:25:45.989Z,31.47
2019-01-02T23:28:51.284Z,29.50
2019-01-02T23:31:53.189Z,30.27
2019-01-02T23:34:49.479Z,30.00
2019-01-02T23:37:40.075Z,30.33
2019-01-02T23:40:28.570Z,27.60
2019-01-02T23:43:18.619Z,27.87
2019-01-02T23:46:04.117Z,27.77
2019-01-02T23:48:58.400Z,26.97
2019-01-02T23:51:51.251Z,27.20
2019-01-02T23:54:36.978Z,27.27
2019-01-02T23:57:24.020Z,28.00
